Belle Terre, New York
Current Conditions -  °F | °C
As of 9:56 PM on Tuesday 21 Oct 2014 (Local Time) from KISP Reporting Station
Broken Clouds Broken Clouds  
Wind Chill: 56°   Ceiling: 8000
Heat Index: 56°   Visibility: 10mi
Dew Point: 53°   Wind: 5mph
Humidity: 90%   Direction: 30°NNE
Pressure: 29.88"   Gusts: NA
Location:  40.9503°N, 73.0617°W
Report Text: KISP 220156Z 03004KT 10SM FEW038 BKN080 BKN230 13/12 A2988 RMK AO2 SLP119 T01330117
Loading
Personal Weather Stations






























Interactive Weather Map
Tropical Storm Tracking
New forecast layout! Learn more

10-Day Weather Forecast

Advertisements
Track Severe Weather on mobile